Time;durP1;ratioP1;P1;durP2;ratioP2;P2;SDS_P1;SDS_P2;PMS_P1;PMS_P2;Temp;Humidity;BMP_temperature;BMP_pressure;BME280_temperature;BME280_humidity;BME280_pressure;Samples;Min_cycle;Max_cycle;Signal;HPM_P1;HPM_P2
2023/06/29 00:00:21;;;;;;;2.20;2.10;;;16.10;99.90;;;;;;4982569;28;20189;-82
2023/06/29 00:02:48;;;;;;;2.77;2.23;;;16.20;99.90;;;;;;4982036;28;20228;-83
2023/06/29 00:05:21;;;;;;;2.33;2.17;;;16.20;99.90;;;;;;4982527;28;20233;-81
2023/06/29 00:07:48;;;;;;;2.23;2.03;;;16.20;99.90;;;;;;4999565;28;20180;-81
2023/06/29 00:10:14;;;;;;;2.67;2.47;;;16.20;99.80;;;;;;4999198;28;20166;-83
2023/06/29 00:12:40;;;;;;;2.77;2.17;;;16.20;99.60;;;;;;5003251;28;20181;-82
2023/06/29 00:15:06;;;;;;;2.00;1.90;;;16.10;99.20;;;;;;5002383;28;20525;-82
2023/06/29 00:17:33;;;;;;;2.10;2.00;;;16.20;99.30;;;;;;4999705;28;20654;-81
2023/06/29 00:20:00;;;;;;;2.20;2.00;;;16.10;98.90;;;;;;4999958;28;20228;-81
2023/06/29 00:22:26;;;;;;;2.13;2.03;;;16.00;99.00;;;;;;4966784;28;20587;-80
2023/06/29 00:24:56;;;;;;;4.27;2.40;;;15.90;98.90;;;;;;4994322;28;20186;-83
2023/06/29 00:27:22;;;;;;;2.43;2.23;;;15.90;99.20;;;;;;5005446;28;20180;-81
2023/06/29 00:29:48;;;;;;;2.23;2.17;;;15.80;99.20;;;;;;4982694;28;20185;-81
2023/06/29 00:32:14;;;;;;;2.40;2.30;;;15.70;98.70;;;;;;4982682;28;20229;-82
2023/06/29 00:34:40;;;;;;;2.00;1.90;;;15.70;99.10;;;;;;4981558;28;20174;-83
2023/06/29 00:37:07;;;;;;;2.20;2.10;;;15.60;99.10;;;;;;4981788;28;20184;-81
2023/06/29 00:39:35;;;;;;;2.23;2.13;;;15.60;99.10;;;;;;4981596;28;20256;-82
2023/06/29 00:42:02;;;;;;;3.00;2.10;;;15.70;99.40;;;;;;4999224;28;20207;-83
2023/06/29 00:44:28;;;;;;;2.13;2.03;;;15.80;99.30;;;;;;4999699;28;20178;-82
2023/06/29 00:46:55;;;;;;;2.70;2.40;;;15.80;99.40;;;;;;5000004;28;20178;-83
2023/06/29 00:49:21;;;;;;;2.77;2.57;;;15.70;99.10;;;;;;4983193;28;20181;-85
2023/06/29 00:51:52;;;;;;;2.60;1.93;;;15.70;99.20;;;;;;4999776;28;20179;-81
2023/06/29 00:54:22;;;;;;;2.50;2.30;;;15.80;99.10;;;;;;4979610;28;20197;-84
2023/06/29 00:56:49;;;;;;;2.47;2.30;;;15.70;99.30;;;;;;4979540;28;20175;-81
2023/06/29 00:59:15;;;;;;;2.10;2.00;;;15.70;98.90;;;;;;4962386;28;20221;-82
2023/06/29 01:01:43;;;;;;;2.90;2.60;;;15.70;99.40;;;;;;4979306;28;20215;-81
2023/06/29 01:04:17;;;;;;;1.90;1.80;;;15.60;99.30;;;;;;4979460;28;20703;-83
2023/06/29 01:06:50;;;;;;;2.33;2.20;;;15.50;98.90;;;;;;4979226;28;20247;-81
2023/06/29 01:09:17;;;;;;;2.77;2.20;;;15.50;99.10;;;;;;4979387;28;20174;-82
2023/06/29 01:11:45;;;;;;;2.50;2.30;;;15.50;99.20;;;;;;4979937;28;20190;-81
2023/06/29 01:14:13;;;;;;;2.30;2.20;;;15.40;99.30;;;;;;4962683;28;20176;-82
2023/06/29 01:16:42;;;;;;;2.30;2.10;;;15.40;99.20;;;;;;4979301;28;20190;-83
2023/06/29 01:19:11;;;;;;;2.23;2.03;;;15.40;99.20;;;;;;4979801;28;20202;-82
2023/06/29 01:21:45;;;;;;;2.20;2.10;;;15.40;99.30;;;;;;4978981;28;20658;-83
2023/06/29 01:24:14;;;;;;;2.40;2.23;;;15.30;99.40;;;;;;4979362;28;20174;-83
2023/06/29 01:26:40;;;;;;;2.70;2.50;;;15.30;99.40;;;;;;4979425;28;20503;-85
2023/06/29 01:29:06;;;;;;;2.47;2.27;;;15.30;99.40;;;;;;4979463;28;20167;-84
2023/06/29 01:31:32;;;;;;;2.10;2.00;;;15.20;99.40;;;;;;4983033;28;20206;-82
2023/06/29 01:33:58;;;;;;;2.70;2.60;;;15.20;99.60;;;;;;4984492;28;20171;-84
2023/06/29 01:36:45;;;;;;;2.50;2.30;;;15.10;99.60;;;;;;4983531;28;20174;-83
2023/06/29 01:39:22;;;;;;;2.37;2.27;;;15.10;99.70;;;;;;4950633;28;20182;-83
2023/06/29 01:41:50;;;;;;;2.40;2.30;;;15.10;99.80;;;;;;4983433;28;20202;-84
2023/06/29 01:44:19;;;;;;;2.50;2.40;;;15.10;99.80;;;;;;4966500;28;20245;-80
2023/06/29 01:46:47;;;;;;;2.77;2.57;;;15.20;99.90;;;;;;4983218;28;20174;-83
2023/06/29 01:49:13;;;;;;;2.33;2.10;;;15.10;99.90;;;;;;4983146;28;20245;-83
2023/06/29 01:51:39;;;;;;;2.73;2.33;;;15.00;99.80;;;;;;4989269;28;20185;-83
2023/06/29 01:54:05;;;;;;;2.47;2.37;;;14.90;99.90;;;;;;5001146;28;20248;-83
2023/06/29 01:56:34;;;;;;;2.20;2.10;;;14.90;99.90;;;;;;5002047;28;20236;-83
2023/06/29 01:59:01;;;;;;;2.40;2.30;;;14.90;99.90;;;;;;4984961;28;20209;-83
2023/06/29 02:01:28;;;;;;;2.50;2.30;;;15.00;99.90;;;;;;5003381;28;20649;-84
2023/06/29 02:03:55;;;;;;;2.33;2.23;;;14.90;99.90;;;;;;5012127;28;20174;-83
2023/06/29 02:06:21;;;;;;;2.40;2.30;;;14.90;99.90;;;;;;5002696;28;20186;-84
2023/06/29 02:08:47;;;;;;;2.30;2.20;;;15.00;99.90;;;;;;4984243;28;20173;-83
2023/06/29 02:11:14;;;;;;;2.63;2.43;;;15.00;99.90;;;;;;5002625;28;20265;-82
2023/06/29 02:13:42;;;;;;;2.50;2.40;;;15.00;99.90;;;;;;5002104;28;20184;-85
2023/06/29 02:16:08;;;;;;;2.60;2.50;;;15.00;99.90;;;;;;4984536;28;20178;-84
2023/06/29 02:18:33;;;;;;;2.63;2.50;;;14.90;99.90;;;;;;5001546;28;20201;-82
2023/06/29 02:20:59;;;;;;;2.23;2.13;;;15.00;99.90;;;;;;5001953;28;20174;-84
2023/06/29 02:23:25;;;;;;;2.30;2.20;;;14.90;99.90;;;;;;5004637;28;20233;-83
2023/06/29 02:25:51;;;;;;;2.70;2.50;;;15.00;99.90;;;;;;4996637;28;20185;-82
2023/06/29 02:28:16;;;;;;;2.40;2.30;;;15.00;99.90;;;;;;5001854;28;20209;-83
2023/06/29 02:30:43;;;;;;;3.13;2.60;;;15.00;99.90;;;;;;4983943;28;20170;-84
2023/06/29 02:33:09;;;;;;;2.50;2.40;;;14.90;99.90;;;;;;5001288;28;20210;-84
2023/06/29 02:35:36;;;;;;;2.63;2.53;;;14.80;99.90;;;;;;5001696;28;20209;-84
2023/06/29 02:38:02;;;;;;;2.33;2.20;;;14.80;99.90;;;;;;5001307;28;20184;-83
2023/06/29 02:40:28;;;;;;;3.07;2.90;;;14.80;99.90;;;;;;5000959;28;20183;-82
2023/06/29 02:42:53;;;;;;;2.47;2.37;;;14.80;99.90;;;;;;5001332;28;20248;-81
2023/06/29 02:45:20;;;;;;;2.37;2.27;;;14.70;99.90;;;;;;4983430;28;20273;-81
2023/06/29 02:47:47;;;;;;;2.90;2.67;;;14.60;99.90;;;;;;5000915;28;20178;-82
2023/06/29 02:50:13;;;;;;;3.03;2.80;;;14.70;99.90;;;;;;5000520;28;20205;-82
2023/06/29 02:52:39;;;;;;;2.83;2.70;;;14.70;99.90;;;;;;5002182;28;20619;-81
2023/06/29 02:55:06;;;;;;;2.60;2.50;;;14.70;99.90;;;;;;5003815;28;20209;-81
2023/06/29 02:57:31;;;;;;;2.40;2.30;;;14.60;99.90;;;;;;5011440;28;20173;-82
2023/06/29 02:59:57;;;;;;;3.57;3.37;;;14.60;99.90;;;;;;5020316;28;20166;-81
2023/06/29 03:02:23;;;;;;;2.77;2.57;;;14.70;99.90;;;;;;5019117;28;20206;-81
2023/06/29 03:04:48;;;;;;;3.07;2.87;;;14.70;99.90;;;;;;5019984;28;20163;-81
2023/06/29 03:07:14;;;;;;;2.80;2.63;;;14.70;99.90;;;;;;5019954;28;20178;-81
2023/06/29 03:09:40;;;;;;;2.80;2.60;;;14.80;99.90;;;;;;5018792;28;20190;-81
2023/06/29 03:12:09;;;;;;;4.90;2.70;;;14.80;99.90;;;;;;5018459;28;20221;-81
2023/06/29 03:14:34;;;;;;;2.77;2.57;;;14.80;99.90;;;;;;5004915;28;20230;-82
2023/06/29 03:17:00;;;;;;;2.43;2.33;;;14.70;99.90;;;;;;5003959;28;20209;-80
2023/06/29 03:19:26;;;;;;;2.90;2.70;;;14.70;99.90;;;;;;5000413;28;20173;-81
2023/06/29 03:21:51;;;;;;;2.97;2.77;;;14.70;99.90;;;;;;4998031;28;20202;-82
2023/06/29 03:24:17;;;;;;;2.90;2.70;;;14.60;99.90;;;;;;5010890;28;20233;-83
2023/06/29 03:26:43;;;;;;;2.93;2.67;;;14.70;99.90;;;;;;5012787;28;20273;-81
2023/06/29 03:29:08;;;;;;;2.97;2.70;;;14.70;99.90;;;;;;4987093;28;20185;-81
2023/06/29 03:31:34;;;;;;;3.17;2.57;;;14.70;99.90;;;;;;5003726;28;20197;-80
2023/06/29 03:34:00;;;;;;;2.70;2.60;;;14.80;99.90;;;;;;4995071;28;20228;-82
2023/06/29 03:36:26;;;;;;;3.20;2.83;;;14.80;99.90;;;;;;4995466;28;20201;-82
2023/06/29 03:38:52;;;;;;;2.40;2.30;;;14.80;99.90;;;;;;4995377;28;20181;-82
2023/06/29 03:41:17;;;;;;;2.80;2.70;;;14.90;99.90;;;;;;4997099;28;20221;-82
2023/06/29 03:43:43;;;;;;;3.30;3.00;;;14.90;99.90;;;;;;4999246;28;20181;-83
2023/06/29 03:46:09;;;;;;;3.00;2.90;;;14.90;99.90;;;;;;4994888;28;20236;-82
2023/06/29 03:48:36;;;;;;;2.83;2.63;;;14.90;99.90;;;;;;4995934;28;20181;-81
2023/06/29 03:51:01;;;;;;;2.93;2.73;;;15.00;99.90;;;;;;4994861;28;20185;-82
2023/06/29 03:53:27;;;;;;;2.97;2.67;;;15.00;99.90;;;;;;4993615;28;20304;-81
2023/06/29 03:55:53;;;;;;;2.73;2.53;;;15.00;99.90;;;;;;4976900;28;20191;-81
2023/06/29 03:58:19;;;;;;;2.80;2.60;;;15.00;99.90;;;;;;4994578;28;20182;-81
2023/06/29 04:00:44;;;;;;;2.90;2.70;;;15.00;99.90;;;;;;4994320;28;20193;-80
2023/06/29 04:03:11;;;;;;;2.90;2.70;;;14.90;99.90;;;;;;4994541;28;20565;-82
2023/06/29 04:05:37;;;;;;;3.70;2.70;;;15.00;99.90;;;;;;4976547;28;20179;-81
2023/06/29 04:08:04;;;;;;;2.43;2.33;;;15.00;99.90;;;;;;4994002;28;20187;-81
2023/06/29 04:10:31;;;;;;;6.80;2.80;;;15.00;99.90;;;;;;4976567;28;20190;-80
2023/06/29 04:12:57;;;;;;;3.60;2.90;;;15.00;99.90;;;;;;4994154;28;20166;-81
2023/06/29 04:15:22;;;;;;;3.07;2.87;;;15.00;99.90;;;;;;4994134;28;20174;-83
2023/06/29 04:17:48;;;;;;;5.33;2.67;;;14.90;99.90;;;;;;4993947;28;20531;-81
2023/06/29 04:20:14;;;;;;;3.10;2.80;;;14.90;99.90;;;;;;4976650;28;20187;-81
2023/06/29 04:22:40;;;;;;;2.63;2.53;;;14.90;99.90;;;;;;4993577;28;20210;-82
2023/06/29 04:25:06;;;;;;;4.30;3.27;;;14.90;99.90;;;;;;4993922;28;20187;-83
2023/06/29 04:27:34;;;;;;;2.80;2.60;;;14.90;99.90;;;;;;4993927;28;20166;-81
2023/06/29 04:30:00;;;;;;;2.83;2.63;;;14.90;99.90;;;;;;4993839;28;20178;-83
2023/06/29 04:32:26;;;;;;;2.87;2.40;;;15.00;99.90;;;;;;4997021;28;20178;-83
2023/06/29 04:34:51;;;;;;;2.90;2.70;;;15.10;99.90;;;;;;4997031;28;20707;-82
2023/06/29 04:37:17;;;;;;;2.80;2.60;;;15.10;99.90;;;;;;4996463;28;20166;-85
2023/06/29 04:39:43;;;;;;;3.40;3.10;;;15.20;99.90;;;;;;4998308;28;20227;-83
2023/06/29 04:42:13;;;;;;;2.53;2.37;;;15.30;99.90;;;;;;4978532;28;20256;-81
2023/06/29 04:44:39;;;;;;;2.93;2.77;;;15.40;99.90;;;;;;4995051;28;20251;-83
2023/06/29 04:47:05;;;;;;;6.30;2.70;;;15.40;99.90;;;;;;4994476;28;20173;-82
2023/06/29 04:49:32;;;;;;;2.90;2.73;;;15.40;99.90;;;;;;4994822;28;20174;-84
2023/06/29 04:52:00;;;;;;;2.80;2.60;;;15.40;99.90;;;;;;5006540;28;20175;-83
2023/06/29 04:54:27;;;;;;;2.67;2.57;;;15.50;99.90;;;;;;5012551;28;20208;-85
2023/06/29 04:56:53;;;;;;;2.50;2.40;;;15.60;99.90;;;;;;4996670;28;20269;-83
2023/06/29 04:59:22;;;;;;;3.10;2.80;;;15.70;99.90;;;;;;4994143;28;20278;-85
2023/06/29 05:01:48;;;;;;;3.00;2.80;;;15.70;99.90;;;;;;4996485;28;20241;-83
2023/06/29 05:04:14;;;;;;;2.90;2.63;;;15.80;99.90;;;;;;4977897;28;20592;-84
2023/06/29 05:06:39;;;;;;;2.80;2.67;;;16.00;99.90;;;;;;5001257;28;20191;-84
2023/06/29 05:09:05;;;;;;;3.73;2.53;;;16.00;99.80;;;;;;5002748;28;20182;-84
2023/06/29 05:11:31;;;;;;;3.00;2.70;;;16.00;99.90;;;;;;5000418;28;20178;-82
2023/06/29 05:13:56;;;;;;;3.10;2.50;;;16.10;99.90;;;;;;4998736;28;20180;-85
2023/06/29 05:16:22;;;;;;;3.33;2.90;;;16.10;99.90;;;;;;4998922;28;20181;-82
2023/06/29 05:18:48;;;;;;;4.13;3.07;;;16.20;99.90;;;;;;5000793;28;20180;-82
2023/06/29 05:21:14;;;;;;;5.60;2.87;;;16.30;99.90;;;;;;5005379;28;20210;-84
2023/06/29 05:23:40;;;;;;;3.03;2.83;;;16.30;99.70;;;;;;4999736;28;20691;-82
2023/06/29 05:26:06;;;;;;;3.93;2.93;;;16.40;99.90;;;;;;4997572;28;20257;-82
2023/06/29 05:28:31;;;;;;;3.70;2.93;;;16.50;99.90;;;;;;4999671;28;20176;-84
2023/06/29 05:30:57;;;;;;;3.70;2.80;;;16.40;99.80;;;;;;4982801;28;20181;-83
2023/06/29 05:33:23;;;;;;;3.03;2.80;;;16.50;99.40;;;;;;5001322;28;20185;-83
2023/06/29 05:35:49;;;;;;;2.90;2.67;;;16.60;99.30;;;;;;5002453;28;20205;-82
2023/06/29 05:38:15;;;;;;;3.07;2.87;;;16.70;99.30;;;;;;4986281;28;20185;-82
2023/06/29 05:40:41;;;;;;;3.90;2.70;;;16.80;99.10;;;;;;5018484;28;20173;-84
2023/06/29 05:43:07;;;;;;;3.20;3.00;;;16.90;99.10;;;;;;5016783;28;20239;-82
2023/06/29 05:45:32;;;;;;;4.63;3.93;;;16.90;99.10;;;;;;5007289;28;20185;-84
2023/06/29 05:47:58;;;;;;;4.13;2.63;;;17.10;99.20;;;;;;5000023;28;20562;-83
2023/06/29 05:50:24;;;;;;;2.70;2.50;;;17.10;99.00;;;;;;5006048;28;20188;-84
2023/06/29 05:52:50;;;;;;;2.80;2.60;;;17.10;98.90;;;;;;4990277;28;20288;-82
2023/06/29 05:55:16;;;;;;;2.80;2.60;;;17.20;98.70;;;;;;4997319;28;20174;-83
2023/06/29 05:57:41;;;;;;;3.73;2.60;;;17.40;98.90;;;;;;4979675;28;20188;-81
2023/06/29 06:00:12;;;;;;;3.40;2.30;;;17.60;98.80;;;;;;4996981;28;20623;-84
2023/06/29 06:02:39;;;;;;;2.73;2.50;;;17.70;98.70;;;;;;4996807;28;20550;-82
2023/06/29 06:05:07;;;;;;;4.73;2.87;;;17.90;98.60;;;;;;4979957;28;20185;-84
2023/06/29 06:07:33;;;;;;;3.03;2.80;;;18.10;98.70;;;;;;4996476;28;20231;-84
2023/06/29 06:09:59;;;;;;;2.93;2.73;;;18.20;98.60;;;;;;4996729;28;20174;-84
2023/06/29 06:12:25;;;;;;;2.63;2.43;;;18.20;98.30;;;;;;4996967;28;20174;-83
2023/06/29 06:14:51;;;;;;;4.33;2.87;;;18.20;98.10;;;;;;4978884;28;20174;-82
2023/06/29 06:17:18;;;;;;;2.77;2.57;;;18.40;97.70;;;;;;4997785;28;20232;-83
2023/06/29 06:19:44;;;;;;;3.10;2.83;;;18.40;97.60;;;;;;4998289;28;20174;-81
2023/06/29 06:22:10;;;;;;;3.50;2.87;;;18.50;97.60;;;;;;4997776;28;20278;-83
2023/06/29 06:24:36;;;;;;;2.87;2.60;;;18.60;97.40;;;;;;4998398;28;20166;-84
2023/06/29 06:27:02;;;;;;;3.10;2.80;;;18.70;97.50;;;;;;4999019;28;20196;-83
2023/06/29 06:29:30;;;;;;;2.87;2.50;;;18.80;96.90;;;;;;4999750;28;20698;-82
2023/06/29 06:31:56;;;;;;;3.70;2.40;;;18.70;96.70;;;;;;4966362;28;20194;-83
2023/06/29 06:34:21;;;;;;;3.00;2.80;;;18.70;96.80;;;;;;4981388;28;20745;-83
2023/06/29 06:36:48;;;;;;;2.90;2.70;;;18.80;96.80;;;;;;5002097;28;20205;-82
2023/06/29 06:39:18;;;;;;;3.07;2.90;;;19.00;96.60;;;;;;5009444;28;20197;-82
2023/06/29 06:41:44;;;;;;;7.77;3.00;;;19.20;96.70;;;;;;4999451;28;20198;-84
2023/06/29 06:44:10;;;;;;;3.67;3.47;;;19.20;97.60;;;;;;5003897;28;20622;-82
2023/06/29 06:46:36;;;;;;;4.43;3.50;;;19.30;97.80;;;;;;5017182;28;20188;-82
2023/06/29 06:49:02;;;;;;;4.87;3.40;;;19.20;97.90;;;;;;5006830;28;20177;-82
2023/06/29 06:51:30;;;;;;;3.60;3.20;;;19.40;98.00;;;;;;4998915;28;20180;-82
2023/06/29 06:53:56;;;;;;;3.60;3.00;;;19.60;98.20;;;;;;4980637;28;20720;-82
2023/06/29 06:56:25;;;;;;;4.80;3.37;;;19.50;97.90;;;;;;4998879;28;20174;-84
2023/06/29 06:58:51;;;;;;;5.07;3.33;;;19.70;97.60;;;;;;5000853;28;20177;-82
2023/06/29 07:01:17;;;;;;;3.00;2.77;;;19.80;97.80;;;;;;4998362;28;20202;-82
2023/06/29 07:03:43;;;;;;;2.90;2.53;;;19.90;97.70;;;;;;4980403;28;20177;-80
2023/06/29 07:06:09;;;;;;;2.57;2.40;;;20.00;97.80;;;;;;4998119;28;20208;-81
2023/06/29 07:08:35;;;;;;;3.00;2.70;;;20.10;97.60;;;;;;4997017;28;20257;-81
2023/06/29 07:11:04;;;;;;;4.40;3.30;;;20.10;97.40;;;;;;4997697;28;20261;-83
2023/06/29 07:13:31;;;;;;;4.13;3.33;;;20.10;97.90;;;;;;4998043;28;20712;-85
2023/06/29 07:15:57;;;;;;;3.83;2.97;;;20.20;98.30;;;;;;4997283;28;20527;-82
2023/06/29 07:18:22;;;;;;;6.67;6.07;;;20.40;99.00;;;;;;4996332;28;20180;-82
2023/06/29 07:20:48;;;;;;;6.10;3.77;;;20.40;98.50;;;;;;4979096;28;20650;-83
2023/06/29 07:23:16;;;;;;;3.87;3.10;;;20.40;98.10;;;;;;4996291;28;20206;-82
2023/06/29 07:25:42;;;;;;;4.27;3.87;;;20.40;98.00;;;;;;4999390;28;20186;-83
2023/06/29 07:28:07;;;;;;;4.00;3.70;;;20.40;97.40;;;;;;4995533;28;20177;-84
2023/06/29 07:30:33;;;;;;;5.93;2.90;;;20.40;97.20;;;;;;4995130;28;20233;-82
2023/06/29 07:33:00;;;;;;;3.20;3.00;;;20.60;97.10;;;;;;4998731;28;20236;-81
2023/06/29 07:35:25;;;;;;;2.90;2.70;;;20.60;97.10;;;;;;4995586;28;20533;-83
2023/06/29 07:37:51;;;;;;;3.33;3.03;;;20.50;97.40;;;;;;4995203;28;20170;-80
2023/06/29 07:40:17;;;;;;;3.37;3.13;;;20.50;97.90;;;;;;4995892;28;20208;-81
2023/06/29 07:42:43;;;;;;;4.13;3.83;;;20.40;97.50;;;;;;4998066;28;20205;-81
2023/06/29 07:45:09;;;;;;;3.33;2.93;;;20.30;97.20;;;;;;5001380;28;20228;-82
2023/06/29 07:47:34;;;;;;;2.97;2.77;;;20.50;97.40;;;;;;5001769;28;20181;-82
2023/06/29 07:50:00;;;;;;;3.23;3.07;;;20.50;97.20;;;;;;5000344;28;20372;-83
2023/06/29 07:52:26;;;;;;;3.97;3.67;;;20.70;96.80;;;;;;5000831;28;20249;-80
2023/06/29 07:54:52;;;;;;;3.83;2.90;;;20.70;97.00;;;;;;5010987;28;20162;-82
2023/06/29 07:57:18;;;;;;;4.07;2.93;;;20.80;96.50;;;;;;5012302;28;20185;-80
2023/06/29 07:59:44;;;;;;;2.90;2.70;;;20.90;95.90;;;;;;4997258;28;20201;-81
2023/06/29 08:02:11;;;;;;;2.40;2.30;;;21.00;95.80;;;;;;4995300;28;20226;-80
2023/06/29 08:04:36;;;;;;;7.67;6.87;;;21.10;96.40;;;;;;4994145;28;20176;-83
2023/06/29 08:07:02;;;;;;;3.97;3.10;;;21.20;96.20;;;;;;4994099;28;20236;-80
2023/06/29 08:09:28;;;;;;;5.33;2.97;;;21.10;96.00;;;;;;4994181;28;20789;-82
2023/06/29 08:11:54;;;;;;;3.20;2.43;;;21.10;96.00;;;;;;4994642;28;20173;-82
2023/06/29 08:14:19;;;;;;;3.07;2.43;;;21.20;95.90;;;;;;4995721;28;20202;-83
2023/06/29 08:16:45;;;;;;;2.57;2.47;;;21.20;95.60;;;;;;4976939;28;20672;-83
2023/06/29 08:19:13;;;;;;;2.60;2.40;;;21.30;96.20;;;;;;4994170;28;20648;-81
2023/06/29 08:21:38;;;;;;;2.70;2.40;;;21.50;96.00;;;;;;4994127;28;20329;-83
2023/06/29 08:24:04;;;;;;;2.37;2.27;;;21.70;96.10;;;;;;4994094;28;20292;-82
2023/06/29 08:26:31;;;;;;;2.43;2.20;;;21.80;96.20;;;;;;4977629;28;20174;-82
2023/06/29 08:28:57;;;;;;;2.30;2.20;;;21.90;96.40;;;;;;4994291;28;20180;-83
2023/06/29 08:31:23;;;;;;;2.73;2.13;;;22.00;96.20;;;;;;4996657;28;20182;-81
2023/06/29 08:33:49;;;;;;;2.53;2.30;;;22.00;94.90;;;;;;4995341;28;20193;-84
2023/06/29 08:36:15;;;;;;;2.50;2.20;;;21.90;95.40;;;;;;4997422;28;20645;-83
2023/06/29 08:38:46;;;;;;;3.23;2.23;;;22.00;95.50;;;;;;5013589;28;20166;-81
2023/06/29 08:41:13;;;;;;;4.00;2.13;;;22.20;95.40;;;;;;4994710;28;20234;-82
2023/06/29 08:43:40;;;;;;;2.27;2.10;;;22.30;94.20;;;;;;4990517;28;20186;-82
2023/06/29 08:46:07;;;;;;;2.93;2.80;;;22.40;94.00;;;;;;4999484;28;20665;-83
2023/06/29 08:48:34;;;;;;;2.50;2.30;;;22.50;94.40;;;;;;4981284;28;20591;-83
2023/06/29 08:51:03;;;;;;;2.50;2.30;;;22.50;94.30;;;;;;4999062;28;20174;-83
2023/06/29 08:53:28;;;;;;;2.30;2.20;;;22.60;94.40;;;;;;4983142;28;20234;-82
2023/06/29 08:55:56;;;;;;;2.50;2.40;;;22.60;94.40;;;;;;4998547;28;20181;-83
2023/06/29 08:58:25;;;;;;;2.97;2.13;;;22.80;93.40;;;;;;4998098;28;20170;-81
2023/06/29 09:00:53;;;;;;;2.00;1.90;;;22.80;93.00;;;;;;4998576;28;20244;-80
2023/06/29 09:03:21;;;;;;;2.30;2.10;;;22.80;92.60;;;;;;5006166;28;20252;-82
2023/06/29 09:05:47;;;;;;;1.98;1.88;;;22.80;92.20;;;;;;4999488;28;20181;-83
2023/06/29 09:08:13;;;;;;;2.25;2.15;;;22.80;91.00;;;;;;4997934;28;20181;-83
2023/06/29 09:10:40;;;;;;;1.90;1.90;;;22.80;90.70;;;;;;4998238;28;20170;-82
2023/06/29 09:13:07;;;;;;;1.80;1.70;;;22.80;90.40;;;;;;4997832;28;20227;-82
2023/06/29 09:15:34;;;;;;;1.90;1.73;;;22.80;90.20;;;;;;4980278;28;20201;-83
2023/06/29 09:18:00;;;;;;;1.90;1.80;;;22.70;90.20;;;;;;4997912;28;20166;-80
2023/06/29 09:20:27;;;;;;;2.00;1.90;;;22.60;89.60;;;;;;4997932;28;20170;-82
2023/06/29 09:22:53;;;;;;;2.28;2.17;;;22.70;90.10;;;;;;4997486;28;20201;-83
2023/06/29 09:25:21;;;;;;;2.10;2.00;;;22.70;89.70;;;;;;4979902;28;20189;-81
2023/06/29 09:27:51;;;;;;;1.95;1.85;;;22.80;89.50;;;;;;4980040;28;20358;-82
2023/06/29 09:30:21;;;;;;;2.17;1.98;;;22.80;91.10;;;;;;4979982;28;20521;-84
2023/06/29 09:32:47;;;;;;;3.38;1.90;;;22.80;89.30;;;;;;4997431;28;20196;-80
2023/06/29 09:35:12;;;;;;;2.07;1.97;;;22.60;88.50;;;;;;4997418;28;20174;-81
2023/06/29 09:37:40;;;;;;;2.10;1.80;;;22.70;88.40;;;;;;4997360;28;20188;-82
2023/06/29 09:40:11;;;;;;;2.00;1.90;;;22.70;87.50;;;;;;4997286;28;20166;-83
2023/06/29 09:42:37;;;;;;;1.92;1.90;;;22.80;86.90;;;;;;4997232;28;20202;-81
2023/06/29 09:45:07;;;;;;;2.63;2.10;;;22.90;89.20;;;;;;4996838;28;20244;-82
2023/06/29 09:47:34;;;;;;;1.83;1.77;;;23.10;89.80;;;;;;4979635;28;20762;-82
2023/06/29 09:50:00;;;;;;;1.88;1.77;;;23.20;90.20;;;;;;4996029;28;20170;-82
2023/06/29 09:52:26;;;;;;;2.78;2.33;;;23.40;90.60;;;;;;4996858;28;20269;-82
2023/06/29 09:54:57;;;;;;;2.28;1.90;;;23.60;90.10;;;;;;4979763;28;20170;-82
2023/06/29 09:57:25;;;;;;;2.15;1.95;;;23.70;90.10;;;;;;4996691;28;20170;-83
2023/06/29 09:59:52;;;;;;;1.83;1.73;;;23.80;88.50;;;;;;4998337;28;20177;-82
2023/06/29 10:02:18;;;;;;;2.20;2.10;;;23.70;87.60;;;;;;4999114;28;20232;-82
2023/06/29 10:04:43;;;;;;;2.08;1.98;;;23.60;85.60;;;;;;4999064;28;20194;-83
2023/06/29 10:07:14;;;;;;;2.05;1.95;;;23.50;86.80;;;;;;5000878;28;20446;-83
2023/06/29 10:09:42;;;;;;;2.08;2.00;;;23.50;86.40;;;;;;5000737;28;20185;-82
2023/06/29 10:12:10;;;;;;;1.95;1.85;;;23.50;85.60;;;;;;5016996;28;20165;-80
2023/06/29 10:14:37;;;;;;;2.00;1.90;;;23.40;84.60;;;;;;4989515;28;20186;-83
2023/06/29 10:17:11;;;;;;;2.05;1.95;;;23.50;87.60;;;;;;4997955;28;20190;-82
2023/06/29 10:19:40;;;;;;;2.10;2.00;;;23.60;88.40;;;;;;4996738;28;20169;-81
2023/06/29 10:22:09;;;;;;;1.92;1.83;;;23.60;86.90;;;;;;4996500;28;20205;-83
2023/06/29 10:24:44;;;;;;;2.03;1.92;;;23.80;88.90;;;;;;4997052;28;20178;-82
2023/06/29 10:27:11;;;;;;;1.88;1.75;;;23.90;89.10;;;;;;4998869;28;20200;-84
2023/06/29 10:29:45;;;;;;;2.10;2.00;;;23.80;86.90;;;;;;4979947;28;20237;-82
2023/06/29 10:32:33;;;;;;;2.03;1.92;;;23.70;85.70;;;;;;5019522;28;20193;-84
2023/06/29 10:35:05;;;;;;;2.10;1.98;;;23.70;86.70;;;;;;5005053;28;20158;-82
2023/06/29 10:37:34;;;;;;;2.35;2.15;;;23.70;87.30;;;;;;4997981;28;20257;-82
2023/06/29 10:40:00;;;;;;;1.98;1.80;;;23.80;88.10;;;;;;4995691;28;20213;-83
2023/06/29 10:42:26;;;;;;;2.20;2.10;;;23.80;86.50;;;;;;4995717;28;20233;-84
2023/06/29 10:44:51;;;;;;;3.35;2.03;;;23.80;85.80;;;;;;4978342;28;20216;-83
2023/06/29 10:47:28;;;;;;;2.38;2.20;;;23.80;85.30;;;;;;4999857;28;20677;-83
2023/06/29 10:50:12;;;;;;;2.90;2.00;;;23.90;87.30;;;;;;4998475;28;20293;-83
2023/06/29 10:52:38;;;;;;;2.08;1.98;;;24.10;87.90;;;;;;4997138;28;20239;-83
2023/06/29 10:55:22;;;;;;;2.15;1.98;;;24.20;88.00;;;;;;4997106;28;20181;-82
2023/06/29 10:57:53;;;;;;;1.83;1.83;;;24.40;86.00;;;;;;4996605;28;20180;-82
2023/06/29 11:00:20;;;;;;;1.85;1.75;;;24.40;83.70;;;;;;4995648;28;20170;-80
2023/06/29 11:02:49;;;;;;;2.85;1.85;;;24.50;85.30;;;;;;4995011;28;20202;-82
2023/06/29 11:05:16;;;;;;;2.13;2.03;;;24.50;86.60;;;;;;4995159;28;20170;-81
2023/06/29 11:07:48;;;;;;;2.15;2.05;;;24.60;86.40;;;;;;4995042;28;20260;-84
2023/06/29 11:10:14;;;;;;;2.72;1.80;;;24.60;86.10;;;;;;4994958;28;20158;-82
2023/06/29 11:12:41;;;;;;;1.77;1.60;;;24.80;87.50;;;;;;4995357;28;20910;-83
2023/06/29 11:15:12;;;;;;;1.90;1.80;;;24.80;84.80;;;;;;4995109;28;20169;-82
2023/06/29 11:17:42;;;;;;;2.05;1.95;;;24.60;82.90;;;;;;4995680;28;20162;-84
2023/06/29 11:20:20;;;;;;;1.80;1.70;;;24.60;84.40;;;;;;4994901;28;20178;-81
2023/06/29 11:22:46;;;;;;;1.60;1.60;;;24.60;84.30;;;;;;4995151;28;20546;-84
2023/06/29 11:25:14;;;;;;;2.05;1.90;;;24.70;85.40;;;;;;4995316;28;20645;-82
2023/06/29 11:27:46;;;;;;;1.80;1.70;;;24.90;85.10;;;;;;4996315;28;20642;-83
2023/06/29 11:30:12;;;;;;;1.98;1.88;;;24.90;83.90;;;;;;4977560;28;20184;-84
2023/06/29 11:32:39;;;;;;;1.95;1.85;;;24.90;84.60;;;;;;4994930;28;20174;-83
2023/06/29 11:35:12;;;;;;;2.00;1.90;;;24.90;85.00;;;;;;4977569;28;20232;-82
2023/06/29 11:37:39;;;;;;;2.55;2.35;;;25.00;87.10;;;;;;4995304;28;20161;-83
2023/06/29 11:40:15;;;;;;;2.00;1.90;;;24.80;84.30;;;;;;4996527;28;20181;-82
2023/06/29 11:42:42;;;;;;;2.05;1.95;;;24.70;83.70;;;;;;5004781;28;20247;-83
2023/06/29 11:45:09;;;;;;;2.00;1.90;;;24.60;84.70;;;;;;4986491;28;20237;-81
2023/06/29 11:47:35;;;;;;;2.20;2.10;;;24.70;85.60;;;;;;4994555;28;20265;-82
2023/06/29 11:50:04;;;;;;;2.00;1.90;;;24.90;86.50;;;;;;4994524;28;20635;-81
2023/06/29 11:52:32;;;;;;;2.65;2.20;;;25.00;86.10;;;;;;4994137;28;20225;-83
2023/06/29 11:55:09;;;;;;;2.03;1.92;;;25.00;86.40;;;;;;4998201;28;20170;-81
2023/06/29 11:57:37;;;;;;;1.60;1.60;;;25.00;83.80;;;;;;4996047;28;20162;-81
2023/06/29 12:00:25;;;;;;;2.08;1.98;;;25.00;82.90;;;;;;4994923;28;20253;-80
2023/06/29 12:02:51;;;;;;;2.00;1.90;;;25.00;82.60;;;;;;4994097;28;20201;-84
2023/06/29 12:05:17;;;;;;;1.65;1.58;;;25.00;82.10;;;;;;4994285;28;20173;-81
2023/06/29 12:07:46;;;;;;;2.00;1.88;;;25.00;83.10;;;;;;4994480;28;20196;-82
2023/06/29 12:10:13;;;;;;;1.77;1.70;;;25.00;82.00;;;;;;4994211;28;20165;-82
2023/06/29 12:12:43;;;;;;;1.92;1.83;;;24.90;82.20;;;;;;4994743;28;20170;-82
2023/06/29 12:15:12;;;;;;;1.90;1.80;;;24.80;81.50;;;;;;4995568;28;20261;-82
2023/06/29 12:17:42;;;;;;;2.00;1.90;;;24.80;83.60;;;;;;4996654;28;20184;-83
2023/06/29 12:20:22;;;;;;;2.08;1.98;;;24.80;85.00;;;;;;4996848;28;20563;-84
2023/06/29 12:22:50;;;;;;;1.92;1.83;;;24.90;85.90;;;;;;4983399;28;20205;-81
2023/06/29 12:25:18;;;;;;;2.15;1.90;;;24.90;84.00;;;;;;5008463;28;20197;-83
2023/06/29 12:27:46;;;;;;;2.05;1.95;;;24.90;83.40;;;;;;5013825;28;20237;-82
2023/06/29 12:30:15;;;;;;;2.40;2.30;;;24.90;83.70;;;;;;5011267;28;20181;-84
2023/06/29 12:32:45;;;;;;;2.17;2.08;;;25.00;84.70;;;;;;4995945;28;20184;-82
2023/06/29 12:35:12;;;;;;;1.95;1.88;;;25.00;86.50;;;;;;4977790;28;20907;-83
2023/06/29 12:37:38;;;;;;;2.13;1.98;;;25.00;84.00;;;;;;4998879;28;20165;-84
2023/06/29 12:40:04;;;;;;;1.73;1.70;;;24.60;83.70;;;;;;4996375;28;20242;-83
2023/06/29 12:42:31;;;;;;;3.40;2.13;;;25.00;82.40;;;;;;4995720;28;20252;-83
2023/06/29 12:44:57;;;;;;;1.90;1.80;;;25.00;82.30;;;;;;4976575;28;20178;-83
2023/06/29 12:47:23;;;;;;;2.20;1.70;;;24.90;83.30;;;;;;4976400;28;20178;-81